createdAt,value
2018-07-10T00:01:05.027Z,70.40
2018-07-10T00:03:56.510Z,65.13
2018-07-10T00:06:35.967Z,66.27
2018-07-10T00:09:18.599Z,62.90
2018-07-10T00:11:47.179Z,63.50
2018-07-10T00:14:15.787Z,50.10
2018-07-10T00:16:43.981Z,54.83
2018-07-10T00:19:12.588Z,53.97
2018-07-10T00:21:41.171Z,76.17
2018-07-10T00:24:09.699Z,129.50
2018-07-10T00:26:38.271Z,134.37
2018-07-10T00:29:06.800Z,145.77
2018-07-10T00:31:35.410Z,161.83
2018-07-10T00:34:04.004Z,157.47
2018-07-10T00:36:32.606Z,149.40
2018-07-10T00:39:05.887Z,130.13
2018-07-10T00:41:36.490Z,141.03
2018-07-10T00:44:05.773Z,139.57
2018-07-10T00:46:36.779Z,119.20
2018-07-10T00:49:05.471Z,158.80
2018-07-10T00:51:36.946Z,158.67
2018-07-10T00:54:05.554Z,144.27
2018-07-10T00:56:34.167Z,124.50
2018-07-10T00:59:04.103Z,158.80
2018-07-10T01:01:33.216Z,131.73
2018-07-10T01:04:01.834Z,68.70
2018-07-10T01:06:30.452Z,85.63
2018-07-10T01:08:58.975Z,125.90
2018-07-10T01:11:27.586Z,123.63
2018-07-10T01:13:56.183Z,201.17
2018-07-10T01:16:33.270Z,215.10
2018-07-10T01:19:03.231Z,216.47
2018-07-10T01:21:31.847Z,309.67
2018-07-10T01:24:02.375Z,406.93
2018-07-10T01:26:33.103Z,397.97
2018-07-10T01:29:06.474Z,354.37
2018-07-10T01:31:35.068Z,410.40
2018-07-10T01:34:03.785Z,488.53
2018-07-10T01:36:32.429Z,499.40
2018-07-10T01:39:01.022Z,542.10
2018-07-10T01:41:29.648Z,501.43
2018-07-10T01:43:58.259Z,525.93
2018-07-10T01:46:26.780Z,521.10
2018-07-10T01:48:55.407Z,456.20
2018-07-10T01:51:23.945Z,473.77
2018-07-10T01:53:52.451Z,383.13
2018-07-10T01:56:20.786Z,383.77
2018-07-10T01:58:49.333Z,375.10
2018-07-10T02:01:17.941Z,479.13
2018-07-10T02:03:46.491Z,475.67
2018-07-10T02:06:15.071Z,438.50
2018-07-10T02:08:43.631Z,506.10
2018-07-10T02:11:12.263Z,549.67
2018-07-10T02:13:40.871Z,528.03
2018-07-10T02:16:09.477Z,478.27
2018-07-10T02:18:38.059Z,469.07
2018-07-10T02:21:08.287Z,476.63
2018-07-10T02:23:42.466Z,467.53
2018-07-10T02:26:20.486Z,441.40
2018-07-10T02:28:49.939Z,308.37
2018-07-10T02:31:18.563Z,291.03
2018-07-10T02:33:47.481Z,146.20
2018-07-10T02:36:16.125Z,136.90
2018-07-10T02:38:47.216Z,109.37
2018-07-10T02:41:18.239Z,68.03
2018-07-10T02:43:55.338Z,46.27
2018-07-10T02:46:23.956Z,43.53
2018-07-10T02:48:54.423Z,42.07
2018-07-10T02:51:23.041Z,43.00
2018-07-10T02:53:51.638Z,39.53
2018-07-10T02:56:19.878Z,70.70
2018-07-10T02:58:48.432Z,71.10
2018-07-10T03:01:17.045Z,93.17
2018-07-10T03:03:45.643Z,115.37
2018-07-10T03:06:14.240Z,163.10
2018-07-10T03:08:43.100Z,186.60
2018-07-10T03:11:13.136Z,241.90
2018-07-10T03:13:42.256Z,245.37
2018-07-10T03:16:10.948Z,246.87
2018-07-10T03:18:40.047Z,225.37
2018-07-10T03:21:08.245Z,204.70
2018-07-10T03:23:36.844Z,171.43
2018-07-10T03:26:05.411Z,153.83
2018-07-10T03:28:34.016Z,115.80
2018-07-10T03:31:02.728Z,115.20
2018-07-10T03:33:31.344Z,80.87
2018-07-10T03:36:00.100Z,67.23
2018-07-10T03:38:29.055Z,69.80
2018-07-10T03:40:57.741Z,71.67
2018-07-10T03:43:27.092Z,112.30
2018-07-10T03:45:56.350Z,75.93
2018-07-10T03:48:25.386Z,91.17
2018-07-10T03:50:54.679Z,81.07
2018-07-10T03:53:24.471Z,45.27
2018-07-10T03:55:53.051Z,67.43
2018-07-10T03:58:21.614Z,90.70
2018-07-10T04:00:50.288Z,87.70
2018-07-10T04:03:22.175Z,139.93
2018-07-10T04:05:51.446Z,132.10
2018-07-10T04:08:20.067Z,151.17
2018-07-10T04:10:48.731Z,186.90
2018-07-10T04:13:21.247Z,268.13
2018-07-10T04:15:53.116Z,296.83
2018-07-10T04:18:25.063Z,391.53
2018-07-10T04:21:27.716Z,397.07
2018-07-10T04:24:10.916Z,381.53
2018-07-10T04:26:42.750Z,403.87
2018-07-10T04:29:15.245Z,480.80
2018-07-10T04:32:03.867Z,492.43
2018-07-10T04:34:33.635Z,479.67
2018-07-10T04:37:08.573Z,484.57
2018-07-10T04:39:37.441Z,492.23
2018-07-10T04:42:27.288Z,403.43
2018-07-10T04:45:03.697Z,343.00
2018-07-10T04:47:39.158Z,368.33
2018-07-10T04:50:20.855Z,408.43
2018-07-10T04:52:53.976Z,388.07
2018-07-10T04:55:22.646Z,359.87
2018-07-10T04:57:58.262Z,275.90
2018-07-10T05:00:27.900Z,185.83
2018-07-10T05:02:57.969Z,179.17
2018-07-10T05:05:29.827Z,181.90
2018-07-10T05:07:59.114Z,167.17
2018-07-10T05:10:28.808Z,223.67
2018-07-10T05:12:57.451Z,207.03
2018-07-10T05:15:25.671Z,212.10
2018-07-10T05:17:56.041Z,256.43
2018-07-10T05:20:25.995Z,262.90
2018-07-10T05:22:54.767Z,192.60
2018-07-10T05:25:23.411Z,164.93
2018-07-10T05:27:52.019Z,113.77
2018-07-10T05:30:21.386Z,109.07
2018-07-10T05:32:50.012Z,90.80
2018-07-10T05:35:18.631Z,78.93
2018-07-10T05:37:47.431Z,89.50
2018-07-10T05:40:16.072Z,85.10
2018-07-10T05:42:46.964Z,74.93
2018-07-10T05:45:19.536Z,68.20
2018-07-10T05:47:51.670Z,70.53
2018-07-10T05:50:19.930Z,106.67
2018-07-10T05:52:48.782Z,119.00
2018-07-10T05:55:21.463Z,97.90
2018-07-10T05:57:50.086Z,64.90
2018-07-10T06:00:18.663Z,56.93
2018-07-10T06:02:47.340Z,53.03
2018-07-10T06:05:15.912Z,55.87
2018-07-10T06:07:44.503Z,59.27
2018-07-10T06:10:13.114Z,41.90
2018-07-10T06:12:41.761Z,53.17
2018-07-10T06:15:10.340Z,84.67
2018-07-10T06:17:38.931Z,95.47
2018-07-10T06:20:07.560Z,101.30
2018-07-10T06:22:36.172Z,105.57
2018-07-10T06:25:06.759Z,88.53
2018-07-10T06:28:44.344Z,103.70
2018-07-10T06:31:16.528Z,84.50
2018-07-10T06:33:51.000Z,84.77
2018-07-10T06:36:23.155Z,69.50
2018-07-10T06:38:52.507Z,56.77
2018-07-10T06:41:21.071Z,51.63
2018-07-10T06:43:55.958Z,51.47
2018-07-10T06:46:31.895Z,50.83
2018-07-10T06:49:06.758Z,51.40
2018-07-10T06:51:36.002Z,48.87
2018-07-10T06:54:04.603Z,43.67
2018-07-10T06:56:33.163Z,71.67
2018-07-10T06:59:01.940Z,87.47
2018-07-10T07:01:30.540Z,58.50
2018-07-10T07:04:01.313Z,42.30
2018-07-10T07:06:30.777Z,46.70
2018-07-10T07:08:59.416Z,80.80
2018-07-10T07:11:28.110Z,83.27
2018-07-10T07:13:57.108Z,100.80
2018-07-10T07:16:25.743Z,55.60
2018-07-10T07:18:54.302Z,54.20
2018-07-10T07:21:22.942Z,211.00
2018-07-10T07:23:51.693Z,103.00
2018-07-10T07:26:20.283Z,99.93
2018-07-10T07:28:48.841Z,75.20
2018-07-10T07:31:17.449Z,67.33
2018-07-10T07:33:46.000Z,88.37
2018-07-10T07:36:14.551Z,58.37
2018-07-10T07:38:43.059Z,87.50
2018-07-10T07:41:11.661Z,96.23
2018-07-10T07:43:40.316Z,94.37
2018-07-10T07:46:08.812Z,157.10
2018-07-10T07:48:37.459Z,279.43
2018-07-10T07:51:06.020Z,383.77
2018-07-10T07:53:34.638Z,447.13
2018-07-10T07:56:03.240Z,505.37
2018-07-10T07:58:31.929Z,423.13
2018-07-10T08:01:00.535Z,462.13
2018-07-10T08:03:29.112Z,516.87
2018-07-10T08:05:57.717Z,485.70
2018-07-10T08:08:26.396Z,433.47
2018-07-10T08:10:55.046Z,268.53
2018-07-10T08:13:23.697Z,266.67
2018-07-10T08:15:52.339Z,294.93
2018-07-10T08:18:21.259Z,295.47
2018-07-10T08:20:49.884Z,264.40
2018-07-10T08:23:18.486Z,262.43
2018-07-10T08:25:47.378Z,289.13
2018-07-10T08:28:15.626Z,336.63
2018-07-10T08:30:45.170Z,351.77
2018-07-10T08:33:13.880Z,316.97
2018-07-10T08:35:44.847Z,376.27
2018-07-10T08:38:28.229Z,395.17
2018-07-10T08:40:56.853Z,355.03
2018-07-10T08:43:27.857Z,379.47
2018-07-10T08:46:03.874Z,437.40
2018-07-10T08:48:32.682Z,386.23
2018-07-10T08:51:01.614Z,438.77
2018-07-10T08:53:30.264Z,457.53
2018-07-10T08:55:59.810Z,430.67
2018-07-10T08:58:28.421Z,401.23
2018-07-10T09:00:57.020Z,422.30
2018-07-10T09:03:25.584Z,407.73
2018-07-10T09:05:55.900Z,305.10
2018-07-10T09:08:24.649Z,154.17
2018-07-10T09:10:53.301Z,151.93
2018-07-10T09:13:22.002Z,117.07
2018-07-10T09:15:50.626Z,195.63
2018-07-10T09:18:19.185Z,120.30
2018-07-10T09:20:50.538Z,151.20
2018-07-10T09:23:20.288Z,145.37
2018-07-10T09:25:52.510Z,219.70
2018-07-10T09:28:35.634Z,254.87
2018-07-10T09:31:15.594Z,97.93
2018-07-10T09:33:52.691Z,115.93
2018-07-10T09:36:28.728Z,128.90
2018-07-10T09:39:05.655Z,110.23
2018-07-10T09:41:40.138Z,153.23
2018-07-10T09:44:15.848Z,126.77
2018-07-10T09:46:49.554Z,132.63
2018-07-10T09:49:22.065Z,136.13
2018-07-10T09:51:55.798Z,148.50
2018-07-10T09:54:40.312Z,151.83
2018-07-10T09:57:13.228Z,136.27
2018-07-10T09:59:46.824Z,107.93
2018-07-10T10:02:23.985Z,87.10
2018-07-10T10:04:59.283Z,84.60
2018-07-10T10:07:45.988Z,95.00
2018-07-10T10:10:19.422Z,76.60
2018-07-10T10:12:57.871Z,134.23
2018-07-10T10:15:35.707Z,102.77
2018-07-10T10:18:10.805Z,141.13
2018-07-10T10:20:46.855Z,170.60
2018-07-10T10:23:15.543Z,130.47
2018-07-10T10:25:50.491Z,109.83
2018-07-10T10:28:22.243Z,148.00
2018-07-10T10:30:50.981Z,200.97
2018-07-10T10:33:19.325Z,49.20
2018-07-10T10:35:48.029Z,63.90
2018-07-10T10:38:17.431Z,73.10
2018-07-10T10:40:47.328Z,148.73
2018-07-10T10:43:15.935Z,162.57
2018-07-10T10:45:47.867Z,147.97
2018-07-10T10:48:17.910Z,121.50
2018-07-10T10:50:49.765Z,89.57
2018-07-10T10:53:19.002Z,37.00
2018-07-10T10:55:47.616Z,29.37
2018-07-10T10:58:16.196Z,18.80
2018-07-10T11:00:44.759Z,33.73
2018-07-10T11:03:13.356Z,95.00
2018-07-10T11:05:44.487Z,38.93
2018-07-10T11:08:13.428Z,76.30
2018-07-10T11:10:42.050Z,83.87
2018-07-10T11:13:10.849Z,80.30
2018-07-10T11:15:45.208Z,87.37
2018-07-10T11:18:29.056Z,60.80
2018-07-10T11:20:59.498Z,16.60
2018-07-10T11:24:04.678Z,11.03
2018-07-10T11:26:35.499Z,20.57
2018-07-10T11:29:05.221Z,17.43
2018-07-10T11:31:34.266Z,19.53
2018-07-10T11:34:02.511Z,12.07
2018-07-10T11:36:31.072Z,11.87
2018-07-10T11:39:05.969Z,8.90
2018-07-10T11:41:35.069Z,9.93
2018-07-10T11:44:06.971Z,10.97
2018-07-10T11:46:35.559Z,10.33
2018-07-10T11:49:04.196Z,12.13
2018-07-10T11:51:32.822Z,13.10
2018-07-10T11:54:01.396Z,12.10
2018-07-10T11:56:30.231Z,12.30
2018-07-10T11:58:58.926Z,12.87
2018-07-10T12:01:27.572Z,12.43
2018-07-10T12:03:56.507Z,12.40
2018-07-10T12:06:25.500Z,10.77
2018-07-10T12:08:56.555Z,14.80
2018-07-10T12:11:25.032Z,12.00
2018-07-10T12:13:53.607Z,17.73
2018-07-10T12:16:22.190Z,15.30
2018-07-10T12:18:50.795Z,17.13
2018-07-10T12:21:20.691Z,21.33
2018-07-10T12:23:49.687Z,15.03
2018-07-10T12:26:18.226Z,13.00
2018-07-10T12:28:46.822Z,11.77
2018-07-10T12:31:15.826Z,13.17
2018-07-10T12:33:44.368Z,18.87
2018-07-10T12:36:12.941Z,16.33
2018-07-10T12:38:41.571Z,10.70
2018-07-10T12:41:10.171Z,9.87
2018-07-10T12:43:38.884Z,12.43
2018-07-10T12:46:07.535Z,11.37
2018-07-10T12:48:36.171Z,14.67
2018-07-10T12:51:04.758Z,15.77
2018-07-10T12:53:33.371Z,16.77
2018-07-10T12:56:02.172Z,12.50
2018-07-10T12:58:32.009Z,15.00
2018-07-10T13:01:00.757Z,16.17
2018-07-10T13:03:29.379Z,12.37
2018-07-10T13:05:58.598Z,12.57
2018-07-10T13:08:27.179Z,14.00
2018-07-10T13:10:55.491Z,14.50
2018-07-10T13:13:24.093Z,14.33
2018-07-10T13:15:52.673Z,10.37
2018-07-10T13:18:23.119Z,8.67
2018-07-10T13:20:52.159Z,12.53
2018-07-10T13:23:20.402Z,12.87
2018-07-10T13:25:49.016Z,7.33
2018-07-10T13:28:17.599Z,10.20
2018-07-10T13:30:46.275Z,8.20
2018-07-10T13:33:15.016Z,9.67
2018-07-10T13:35:43.638Z,11.73
2018-07-10T13:38:13.001Z,15.17
2018-07-10T13:40:41.631Z,9.33
2018-07-10T13:43:10.297Z,9.10
2018-07-10T13:45:38.828Z,12.20
2018-07-10T13:48:07.411Z,17.73
2018-07-10T13:50:35.665Z,21.00
2018-07-10T13:53:04.658Z,19.13
2018-07-10T13:55:33.555Z,18.43
2018-07-10T13:58:17.172Z,18.37
2018-07-10T14:00:57.094Z,20.60
2018-07-10T14:03:25.693Z,19.10
2018-07-10T14:05:54.301Z,19.83
2018-07-10T14:08:23.056Z,21.20
2018-07-10T14:10:51.638Z,19.33
2018-07-10T14:13:20.327Z,18.90
2018-07-10T14:15:48.903Z,18.67
2018-07-10T14:18:17.979Z,19.47
2018-07-10T14:20:49.375Z,20.10
2018-07-10T14:23:17.996Z,23.40
2018-07-10T14:25:47.341Z,81.53
2018-07-10T14:28:15.940Z,88.07
2018-07-10T14:30:44.576Z,83.30
2018-07-10T14:33:12.741Z,71.47
2018-07-10T14:35:41.355Z,24.83
2018-07-10T14:38:11.247Z,22.40
2018-07-10T14:40:43.482Z,17.10
2018-07-10T14:43:14.614Z,20.17
2018-07-10T14:45:43.252Z,21.30
2018-07-10T14:48:11.839Z,34.73
2018-07-10T14:50:40.083Z,37.53
2018-07-10T14:53:08.629Z,92.70
2018-07-10T14:55:40.051Z,88.37
2018-07-10T14:58:08.660Z,94.87
2018-07-10T15:00:37.222Z,90.00
2018-07-10T15:03:05.833Z,103.53
2018-07-10T15:05:34.415Z,110.83
2018-07-10T15:08:03.044Z,108.90
2018-07-10T15:10:31.636Z,84.40
2018-07-10T15:13:00.162Z,101.87
2018-07-10T15:15:28.757Z,81.70
2018-07-10T15:18:02.517Z,57.80
2018-07-10T15:20:30.785Z,81.17
2018-07-10T15:23:00.435Z,109.40
2018-07-10T15:25:29.007Z,85.87
2018-07-10T15:27:57.556Z,70.97
2018-07-10T15:30:26.128Z,38.13
2018-07-10T15:32:54.748Z,39.40
2018-07-10T15:35:23.319Z,37.47
2018-07-10T15:37:51.771Z,41.00
2018-07-10T15:40:20.402Z,25.77
2018-07-10T15:42:49.035Z,21.20
2018-07-10T15:45:17.616Z,20.50
2018-07-10T15:47:46.150Z,21.17
2018-07-10T15:50:14.483Z,23.53
2018-07-10T15:52:43.051Z,23.67
2018-07-10T15:55:11.639Z,23.63
2018-07-10T15:57:40.323Z,20.97
2018-07-10T16:00:08.990Z,19.50
2018-07-10T16:02:37.627Z,19.30
2018-07-10T16:05:07.049Z,21.47
2018-07-10T16:07:36.142Z,20.70
2018-07-10T16:10:04.686Z,35.40
2018-07-10T16:12:33.298Z,53.87
2018-07-10T16:15:01.912Z,90.37
2018-07-10T16:17:30.493Z,99.83
2018-07-10T16:20:09.425Z,88.57
2018-07-10T16:22:40.096Z,46.70
2018-07-10T16:25:15.561Z,31.33
2018-07-10T16:27:46.608Z,20.13
2018-07-10T16:30:20.360Z,13.63
2018-07-10T16:32:49.060Z,15.57
2018-07-10T16:35:18.595Z,14.73
2018-07-10T16:37:47.123Z,13.60
2018-07-10T16:40:15.774Z,13.23
2018-07-10T16:42:47.591Z,12.17
2018-07-10T16:45:21.285Z,13.43
2018-07-10T16:47:59.268Z,19.13
2018-07-10T16:50:30.027Z,27.47
2018-07-10T16:53:00.021Z,36.83
2018-07-10T16:55:29.233Z,38.60
2018-07-10T16:57:57.506Z,38.77
2018-07-10T17:00:27.739Z,36.57
2018-07-10T17:02:57.090Z,37.30
2018-07-10T17:05:26.529Z,38.43
2018-07-10T17:07:57.274Z,33.17
2018-07-10T17:10:25.999Z,32.67
2018-07-10T17:12:57.294Z,31.60
2018-07-10T17:15:26.595Z,35.83
2018-07-10T17:17:55.185Z,41.43
2018-07-10T17:20:23.728Z,34.97
2018-07-10T17:22:52.423Z,36.67
2018-07-10T17:25:20.984Z,30.00
2018-07-10T17:27:50.908Z,26.23
2018-07-10T17:30:19.487Z,23.00
2018-07-10T17:32:48.117Z,38.67
2018-07-10T17:35:16.663Z,15.27
2018-07-10T17:37:47.947Z,10.30
2018-07-10T17:40:16.801Z,9.70
2018-07-10T17:42:46.163Z,12.40
2018-07-10T17:45:23.115Z,10.10
2018-07-10T17:47:51.916Z,9.43
2018-07-10T17:50:20.551Z,9.00
2018-07-10T17:52:49.159Z,8.40
2018-07-10T17:55:17.922Z,10.97
2018-07-10T17:57:46.952Z,10.37
2018-07-10T18:00:15.568Z,10.57
2018-07-10T18:02:45.728Z,10.60
2018-07-10T18:05:17.829Z,10.67
2018-07-10T18:07:48.479Z,18.30
2018-07-10T18:10:17.705Z,34.57
2018-07-10T18:12:46.336Z,23.97
2018-07-10T18:15:14.964Z,10.70
2018-07-10T18:17:43.612Z,10.70
2018-07-10T18:20:12.261Z,11.27
2018-07-10T18:22:43.459Z,10.10
2018-07-10T18:25:12.137Z,8.83
2018-07-10T18:27:41.149Z,8.70
2018-07-10T18:30:09.801Z,9.00
2018-07-10T18:32:38.369Z,10.53
2018-07-10T18:35:06.940Z,15.93
2018-07-10T18:37:35.553Z,17.93
2018-07-10T18:40:04.113Z,21.43
2018-07-10T18:42:32.829Z,21.53
2018-07-10T18:45:01.676Z,20.27
2018-07-10T18:47:30.251Z,13.40
2018-07-10T18:49:58.856Z,10.97
2018-07-10T18:52:29.878Z,9.50
2018-07-10T18:55:00.236Z,11.47
2018-07-10T18:59:43.579Z,11.37
2018-07-10T19:02:17.154Z,12.33
2018-07-10T19:04:56.677Z,23.73
2018-07-10T19:07:25.268Z,36.83
2018-07-10T19:09:53.578Z,36.33
2018-07-10T19:12:22.111Z,41.97
2018-07-10T19:14:50.717Z,36.53
2018-07-10T19:17:24.101Z,36.67
2018-07-10T19:19:54.071Z,33.07
2018-07-10T19:22:27.223Z,33.87
2018-07-10T19:24:56.209Z,33.53
2018-07-10T19:27:25.267Z,34.13
2018-07-10T19:29:55.058Z,36.27
2018-07-10T19:32:23.681Z,34.23
2018-07-10T19:34:55.932Z,32.60
2018-07-10T19:37:26.660Z,29.30
2018-07-10T19:39:55.593Z,29.33
2018-07-10T19:42:24.237Z,25.40
2018-07-10T19:44:52.969Z,22.80
2018-07-10T19:47:22.350Z,26.40
2018-07-10T19:49:52.076Z,34.87
2018-07-10T19:52:21.503Z,19.53
2018-07-10T19:54:50.127Z,13.77
2018-07-10T19:57:27.527Z,15.40
2018-07-10T19:59:56.878Z,14.90
2018-07-10T20:02:25.596Z,15.90
2018-07-10T20:04:58.860Z,46.87
2018-07-10T20:07:34.697Z,97.60
2018-07-10T20:11:09.270Z,117.40
2018-07-10T20:13:44.448Z,111.70
2018-07-10T20:17:20.672Z,82.00
2018-07-10T20:19:54.415Z,70.80
2018-07-10T20:23:33.740Z,45.47
2018-07-10T20:26:10.889Z,39.53
2018-07-10T20:28:46.500Z,139.70
2018-07-10T20:31:26.931Z,145.07
2018-07-10T20:34:03.044Z,148.97
2018-07-10T20:36:32.190Z,130.43
2018-07-10T20:39:03.847Z,104.83
2018-07-10T20:41:41.782Z,82.77
2018-07-10T20:44:10.392Z,36.50
2018-07-10T20:46:44.092Z,29.00
2018-07-10T20:49:12.312Z,26.13
2018-07-10T20:51:49.516Z,28.60
2018-07-10T20:54:30.608Z,26.40
2018-07-10T20:57:06.249Z,26.60
2018-07-10T20:59:42.823Z,27.03
2018-07-10T21:02:19.091Z,26.67
2018-07-10T21:05:00.216Z,53.83
2018-07-10T21:07:30.876Z,49.13
2018-07-10T21:10:09.227Z,46.97
2018-07-10T21:14:07.686Z,40.43
2018-07-10T21:16:45.974Z,38.80
2018-07-10T21:21:30.069Z,37.23
2018-07-10T21:24:09.497Z,33.83
2018-07-10T21:26:42.494Z,55.73
2018-07-10T21:31:24.994Z,179.27
2018-07-10T21:34:02.432Z,204.30
2018-07-10T21:38:47.648Z,296.50
2018-07-10T21:41:55.053Z,137.50
2018-07-10T21:45:35.938Z,214.90
2018-07-10T21:48:11.046Z,279.90
2018-07-10T21:50:47.318Z,389.93
2018-07-10T21:53:16.265Z,428.43
2018-07-10T21:55:45.517Z,438.53
2018-07-10T21:58:14.769Z,451.63
2018-07-10T22:00:55.443Z,444.87
2018-07-10T22:03:24.061Z,411.03
2018-07-10T22:05:54.298Z,423.67
2018-07-10T22:08:23.668Z,391.13
2018-07-10T22:10:52.243Z,418.77
2018-07-10T22:13:21.418Z,421.40
2018-07-10T22:15:50.693Z,419.13
2018-07-10T22:18:19.411Z,403.13
2018-07-10T22:20:49.603Z,394.83
2018-07-10T22:23:18.228Z,375.80
2018-07-10T22:25:46.796Z,364.77
2018-07-10T22:28:17.367Z,362.87
2018-07-10T22:30:51.981Z,324.93
2018-07-10T22:33:20.599Z,289.10
2018-07-10T22:35:49.268Z,256.13
2018-07-10T22:38:18.641Z,261.17
2018-07-10T22:40:48.058Z,261.37
2018-07-10T22:43:16.716Z,244.23
2018-07-10T22:45:46.295Z,219.07
2018-07-10T22:48:16.421Z,226.30
2018-07-10T22:50:46.203Z,236.37
2018-07-10T22:53:14.633Z,257.97
2018-07-10T22:55:43.254Z,245.10
2018-07-10T22:58:11.847Z,253.00
2018-07-10T23:00:40.550Z,233.87
2018-07-10T23:03:20.589Z,235.00
2018-07-10T23:05:50.104Z,204.60
2018-07-10T23:08:21.225Z,229.47
2018-07-10T23:10:50.347Z,283.60
2018-07-10T23:13:19.151Z,279.87
2018-07-10T23:15:48.403Z,285.70
2018-07-10T23:18:17.539Z,282.60
2018-07-10T23:20:46.186Z,294.03
2018-07-10T23:23:14.760Z,313.57
2018-07-10T23:25:44.118Z,270.73
2018-07-10T23:28:12.695Z,299.70
2018-07-10T23:30:41.494Z,329.23
2018-07-10T23:33:12.416Z,303.33
2018-07-10T23:35:42.093Z,303.57
2018-07-10T23:38:14.484Z,298.60
2018-07-10T23:40:44.544Z,305.73
2018-07-10T23:43:13.181Z,328.17
2018-07-10T23:45:41.749Z,322.27
2018-07-10T23:48:10.370Z,343.10
2018-07-10T23:50:39.309Z,343.77
2018-07-10T23:54:11.761Z,331.87
2018-07-10T23:56:40.020Z,299.37
2018-07-10T23:59:08.627Z,353.07
